sensor_id;sensor_type;location;lat;lon;timestamp;pressure;altitude;pressure_sealevel;temperature;humidity
10466;BME280;5280;42.600;23.556;2024-01-11T00:02:00;94284.34;;;-4.25;100.00
10466;BME280;5280;42.600;23.556;2024-01-11T00:04:28;94310.03;;;-4.13;100.00
10466;BME280;5280;42.600;23.556;2024-01-11T00:06:56;94267.25;;;-4.36;100.00
10466;BME280;5280;42.600;23.556;2024-01-11T00:09:23;94294.59;;;-4.16;100.00
10466;BME280;5280;42.600;23.556;2024-01-11T00:11:50;94287.75;;;-4.19;100.00
10466;BME280;5280;42.600;23.556;2024-01-11T00:14:17;94288.59;;;-4.21;100.00
10466;BME280;5280;42.600;23.556;2024-01-11T00:16:44;94284.38;;;-4.30;100.00
10466;BME280;5280;42.600;23.556;2024-01-11T00:19:11;94210.84;;;-4.78;100.00
10466;BME280;5280;42.600;23.556;2024-01-11T00:21:38;94282.66;;;-4.29;100.00
10466;BME280;5280;42.600;23.556;2024-01-11T00:24:07;94270.75;;;-4.47;100.00
10466;BME280;5280;42.600;23.556;2024-01-11T00:26:34;94287.84;;;-4.29;100.00
10466;BME280;5280;42.600;23.556;2024-01-11T00:29:02;94217.63;;;-4.66;100.00
10466;BME280;5280;42.600;23.556;2024-01-11T00:31:29;94278.34;;;-4.27;100.00
10466;BME280;5280;42.600;23.556;2024-01-11T00:33:56;94282.63;;;-4.26;100.00
10466;BME280;5280;42.600;23.556;2024-01-11T00:36:23;94267.16;;;-4.28;100.00
10466;BME280;5280;42.600;23.556;2024-01-11T00:38:50;94195.44;;;-4.81;100.00
10466;BME280;5280;42.600;23.556;2024-01-11T00:41:18;94273.22;;;-4.29;100.00
10466;BME280;5280;42.600;23.556;2024-01-11T00:43:45;94274.13;;;-4.36;100.00
10466;BME280;5280;42.600;23.556;2024-01-11T00:46:13;94277.56;;;-4.37;100.00
10466;BME280;5280;42.600;23.556;2024-01-11T00:48:40;94271.59;;;-4.42;100.00
10466;BME280;5280;42.600;23.556;2024-01-11T00:51:07;94258.78;;;-4.53;100.00
10466;BME280;5280;42.600;23.556;2024-01-11T00:53:34;94243.41;;;-4.63;100.00
10466;BME280;5280;42.600;23.556;2024-01-11T00:56:01;94255.38;;;-4.58;99.04
10466;BME280;5280;42.600;23.556;2024-01-11T00:58:30;94256.22;;;-4.54;99.49
10466;BME280;5280;42.600;23.556;2024-01-11T01:00:57;94245.09;;;-4.62;100.00
10466;BME280;5280;42.600;23.556;2024-01-11T01:03:24;94260.53;;;-4.55;100.00
10466;BME280;5280;42.600;23.556;2024-01-11T01:05:51;94243.44;;;-4.68;100.00
10466;BME280;5280;42.600;23.556;2024-01-11T01:08:18;94260.53;;;-4.55;100.00
10466;BME280;5280;42.600;23.556;2024-01-11T01:10:45;94236.53;;;-4.66;100.00
10466;BME280;5280;42.600;23.556;2024-01-11T01:13:12;94248.53;;;-4.62;100.00
10466;BME280;5280;42.600;23.556;2024-01-11T01:15:40;94212.75;;;-4.98;100.00
10466;BME280;5280;42.600;23.556;2024-01-11T01:18:07;94250.28;;;-4.64;100.00
10466;BME280;5280;42.600;23.556;2024-01-11T01:20:34;94252.09;;;-4.75;100.00
10466;BME280;5280;42.600;23.556;2024-01-11T01:23:02;94259.75;;;-4.67;100.00
10466;BME280;5280;42.600;23.556;2024-01-11T01:25:29;94262.38;;;-4.69;100.00
10466;BME280;5280;42.600;23.556;2024-01-11T01:27:56;94252.06;;;-4.69;100.00
10466;BME280;5280;42.600;23.556;2024-01-11T01:30:24;94243.50;;;-4.74;100.00
10466;BME280;5280;42.600;23.556;2024-01-11T01:32:53;94228.16;;;-4.89;100.00
10466;BME280;5280;42.600;23.556;2024-01-11T01:35:20;94193.03;;;-5.04;100.00
10466;BME280;5280;42.600;23.556;2024-01-11T01:37:47;94242.66;;;-4.78;100.00
10466;BME280;5280;42.600;23.556;2024-01-11T01:40:14;94194.72;;;-5.01;100.00
10466;BME280;5280;42.600;23.556;2024-01-11T01:42:42;94203.28;;;-4.96;100.00
10466;BME280;5280;42.600;23.556;2024-01-11T01:45:10;94234.06;;;-4.77;100.00
10466;BME280;5280;42.600;23.556;2024-01-11T01:47:39;94158.84;;;-5.26;100.00
10466;BME280;5280;42.600;23.556;2024-01-11T01:50:10;94217.81;;;-4.85;100.00
10466;BME280;5280;42.600;23.556;2024-01-11T01:52:40;94219.53;;;-4.85;100.00
10466;BME280;5280;42.600;23.556;2024-01-11T01:55:09;94195.63;;;-5.05;100.00
10466;BME280;5280;42.600;23.556;2024-01-11T01:57:37;94214.41;;;-4.88;100.00
10466;BME280;5280;42.600;23.556;2024-01-11T02:00:09;94163.09;;;-5.22;100.00
10466;BME280;5280;42.600;23.556;2024-01-11T02:02:38;94175.81;;;-5.00;100.00
10466;BME280;5280;42.600;23.556;2024-01-11T02:05:06;94216.94;;;-4.84;100.00
10466;BME280;5280;42.600;23.556;2024-01-11T02:07:35;94202.38;;;-4.89;100.00
10466;BME280;5280;42.600;23.556;2024-01-11T02:10:04;94214.31;;;-4.82;100.00
10466;BME280;5280;42.600;23.556;2024-01-11T02:12:32;94192.97;;;-4.96;100.00
10466;BME280;5280;42.600;23.556;2024-01-11T02:15:00;94172.38;;;-4.99;100.00
10466;BME280;5280;42.600;23.556;2024-01-11T02:17:28;94173.22;;;-4.94;100.00
10466;BME280;5280;42.600;23.556;2024-01-11T02:19:56;94201.44;;;-4.81;100.00
10466;BME280;5280;42.600;23.556;2024-01-11T02:22:27;94180.94;;;-4.94;100.00
10466;BME280;5280;42.600;23.556;2024-01-11T02:24:57;94133.03;;;-5.19;100.00
10466;BME280;5280;42.600;23.556;2024-01-11T02:27:24;94183.47;;;-4.91;100.00
10466;BME280;5280;42.600;23.556;2024-01-11T02:29:51;94201.41;;;-4.76;100.00
10466;BME280;5280;42.600;23.556;2024-01-11T02:32:18;94189.41;;;-4.82;100.00
10466;BME280;5280;42.600;23.556;2024-01-11T02:34:46;94193.69;;;-4.79;100.00
10466;BME280;5280;42.600;23.556;2024-01-11T02:37:14;94159.47;;;-4.96;100.00
10466;BME280;5280;42.600;23.556;2024-01-11T02:39:41;94189.41;;;-4.79;100.00
10466;BME280;5280;42.600;23.556;2024-01-11T02:42:10;94197.09;;;-4.74;100.00
10466;BME280;5280;42.600;23.556;2024-01-11T02:44:37;94179.13;;;-4.85;100.00
10466;BME280;5280;42.600;23.556;2024-01-11T02:47:04;94189.41;;;-4.83;100.00
10466;BME280;5280;42.600;23.556;2024-01-11T02:49:31;94195.41;;;-4.80;100.00
10466;BME280;5280;42.600;23.556;2024-01-11T02:51:58;94197.13;;;-4.80;100.00
10466;BME280;5280;42.600;23.556;2024-01-11T02:54:25;94180.00;;;-4.84;100.00
10466;BME280;5280;42.600;23.556;2024-01-11T02:56:52;94192.00;;;-4.80;100.00
10466;BME280;5280;42.600;23.556;2024-01-11T02:59:20;94191.13;;;-4.81;100.00
10466;BME280;5280;42.600;23.556;2024-01-11T03:01:47;94157.78;;;-5.00;100.00
10466;BME280;5280;42.600;23.556;2024-01-11T03:04:15;94185.16;;;-4.84;100.00
10466;BME280;5280;42.600;23.556;2024-01-11T03:06:42;94121.13;;;-5.36;100.00
10466;BME280;5280;42.600;23.556;2024-01-11T03:09:09;94183.44;;;-4.87;100.00
10466;BME280;5280;42.600;23.556;2024-01-11T03:11:37;94166.38;;;-4.98;100.00
10466;BME280;5280;42.600;23.556;2024-01-11T03:14:04;94184.28;;;-4.88;100.00
10466;BME280;5280;42.600;23.556;2024-01-11T03:16:32;94178.31;;;-4.90;100.00
10466;BME280;5280;42.600;23.556;2024-01-11T03:19:00;94181.78;;;-4.94;100.00
10466;BME280;5280;42.600;23.556;2024-01-11T03:21:27;94162.97;;;-5.03;100.00
10466;BME280;5280;42.600;23.556;2024-01-11T03:23:55;94149.28;;;-5.10;100.00
10466;BME280;5280;42.600;23.556;2024-01-11T03:26:22;94118.56;;;-5.36;100.00
10466;BME280;5280;42.600;23.556;2024-01-11T03:28:49;94178.38;;;-4.94;100.00
10466;BME280;5280;42.600;23.556;2024-01-11T03:31:16;94092.84;;;-5.42;100.00
10466;BME280;5280;42.600;23.556;2024-01-11T03:33:44;94162.94;;;-5.00;100.00
10466;BME280;5280;42.600;23.556;2024-01-11T03:36:12;94162.91;;;-4.97;100.00
10466;BME280;5280;42.600;23.556;2024-01-11T03:38:39;94173.16;;;-4.91;100.00
10466;BME280;5280;42.600;23.556;2024-01-11T03:41:08;94169.78;;;-4.95;100.00
10466;BME280;5280;42.600;23.556;2024-01-11T03:43:36;94160.38;;;-5.00;100.00
10466;BME280;5280;42.600;23.556;2024-01-11T03:46:03;94171.53;;;-4.98;100.00
10466;BME280;5280;42.600;23.556;2024-01-11T03:48:30;94171.53;;;-4.98;100.00
10466;BME280;5280;42.600;23.556;2024-01-11T03:50:59;94165.50;;;-4.99;100.00
10466;BME280;5280;42.600;23.556;2024-01-11T03:53:26;94168.94;;;-5.00;100.00
10466;BME280;5280;42.600;23.556;2024-01-11T03:55:53;94144.16;;;-5.17;99.36
10466;BME280;5280;42.600;23.556;2024-01-11T03:58:20;94154.44;;;-5.08;100.00
10466;BME280;5280;42.600;23.556;2024-01-11T04:00:47;94144.16;;;-5.17;100.00
10466;BME280;5280;42.600;23.556;2024-01-11T04:03:14;94164.69;;;-5.05;100.00
10466;BME280;5280;42.600;23.556;2024-01-11T04:05:41;94158.69;;;-5.06;100.00
10466;BME280;5280;42.600;23.556;2024-01-11T04:08:09;94168.13;;;-5.03;100.00
10466;BME280;5280;42.600;23.556;2024-01-11T04:10:36;94163.81;;;-5.03;100.00
10466;BME280;5280;42.600;23.556;2024-01-11T04:13:03;94081.03;;;-5.64;100.00
10466;BME280;5280;42.600;23.556;2024-01-11T04:15:30;94168.13;;;-5.03;100.00
10466;BME280;5280;42.600;23.556;2024-01-11T04:17:57;94155.25;;;-5.06;100.00
10466;BME280;5280;42.600;23.556;2024-01-11T04:20:24;94164.66;;;-5.02;100.00
10466;BME280;5280;42.600;23.556;2024-01-11T04:22:51;94159.50;;;-5.02;100.00
10466;BME280;5280;42.600;23.556;2024-01-11T04:25:20;94068.97;;;-5.59;100.00
10466;BME280;5280;42.600;23.556;2024-01-11T04:27:47;94154.44;;;-5.08;100.00
10466;BME280;5280;42.600;23.556;2024-01-11T04:30:14;94145.00;;;-5.11;100.00
10466;BME280;5280;42.600;23.556;2024-01-11T04:32:41;94150.19;;;-5.15;100.00
10466;BME280;5280;42.600;23.556;2024-01-11T04:35:09;94149.31;;;-5.14;100.00
10466;BME280;5280;42.600;23.556;2024-01-11T04:37:36;94146.75;;;-5.17;100.00
10466;BME280;5280;42.600;23.556;2024-01-11T04:40:04;94116.97;;;-5.49;100.00
10466;BME280;5280;42.600;23.556;2024-01-11T04:42:32;94110.91;;;-5.48;100.00
10466;BME280;5280;42.600;23.556;2024-01-11T04:44:59;94151.06;;;-5.23;100.00
10466;BME280;5280;42.600;23.556;2024-01-11T04:47:29;94156.25;;;-5.26;100.00
10466;BME280;5280;42.600;23.556;2024-01-11T04:49:56;94159.66;;;-5.21;100.00
10466;BME280;5280;42.600;23.556;2024-01-11T04:52:23;94152.78;;;-5.20;100.00
10466;BME280;5280;42.600;23.556;2024-01-11T04:54:49;94158.81;;;-5.23;100.00
10466;BME280;5280;42.600;23.556;2024-01-11T04:57:17;94117.81;;;-5.50;100.00
10466;BME280;5280;42.600;23.556;2024-01-11T04:59:45;94141.75;;;-5.34;100.00
10466;BME280;5280;42.600;23.556;2024-01-11T05:02:12;94158.84;;;-5.24;100.00
10466;BME280;5280;42.600;23.556;2024-01-11T05:04:39;94147.69;;;-5.26;100.00
10466;BME280;5280;42.600;23.556;2024-01-11T05:07:06;94158.88;;;-5.29;100.00
10466;BME280;5280;42.600;23.556;2024-01-11T05:09:33;94146.00;;;-5.32;100.00
10466;BME280;5280;42.600;23.556;2024-01-11T05:12:00;94159.75;;;-5.30;100.00
10466;BME280;5280;42.600;23.556;2024-01-11T05:14:27;94146.94;;;-5.40;100.00
10466;BME280;5280;42.600;23.556;2024-01-11T05:16:56;94143.47;;;-5.35;100.00
10466;BME280;5280;42.600;23.556;2024-01-11T05:19:23;94145.19;;;-5.37;100.00
10466;BME280;5280;42.600;23.556;2024-01-11T05:21:50;94128.16;;;-5.57;100.00
10466;BME280;5280;42.600;23.556;2024-01-11T05:24:17;94120.38;;;-5.50;100.00
10466;BME280;5280;42.600;23.556;2024-01-11T05:26:45;94140.91;;;-5.39;100.00
10466;BME280;5280;42.600;23.556;2024-01-11T05:29:12;94141.78;;;-5.40;100.00
10466;BME280;5280;42.600;23.556;2024-01-11T05:31:39;94134.91;;;-5.40;100.00
10466;BME280;5280;42.600;23.556;2024-01-11T05:34:08;94131.47;;;-5.39;100.00
10466;BME280;5280;42.600;23.556;2024-01-11T05:36:37;94129.75;;;-5.38;100.00
10466;BME280;5280;42.600;23.556;2024-01-11T05:39:04;94088.75;;;-5.66;100.00
10466;BME280;5280;42.600;23.556;2024-01-11T05:41:31;94126.31;;;-5.39;100.00
10466;BME280;5280;42.600;23.556;2024-01-11T05:43:58;94080.28;;;-5.80;100.00
10466;BME280;5280;42.600;23.556;2024-01-11T05:46:25;94129.75;;;-5.38;100.00
10466;BME280;5280;42.600;23.556;2024-01-11T05:48:52;94122.03;;;-5.43;100.00
10466;BME280;5280;42.600;23.556;2024-01-11T05:51:20;94127.19;;;-5.40;99.94
10466;BME280;5280;42.600;23.556;2024-01-11T05:53:47;94124.63;;;-5.40;99.14
10466;BME280;5280;42.600;23.556;2024-01-11T05:56:14;94123.78;;;-5.43;98.52
10466;BME280;5280;42.600;23.556;2024-01-11T05:58:41;94118.63;;;-5.48;98.89
10466;BME280;5280;42.600;23.556;2024-01-11T06:01:08;94118.63;;;-5.48;99.41
10466;BME280;5280;42.600;23.556;2024-01-11T06:03:35;94096.47;;;-5.64;99.58
10466;BME280;5280;42.600;23.556;2024-01-11T06:06:04;94116.09;;;-5.52;99.15
10466;BME280;5280;42.600;23.556;2024-01-11T06:08:32;94129.88;;;-5.56;99.72
10466;BME280;5280;42.600;23.556;2024-01-11T06:10:59;94037.66;;;-6.14;99.48
10466;BME280;5280;42.600;23.556;2024-01-11T06:13:26;94127.31;;;-5.61;99.58
10466;BME280;5280;42.600;23.556;2024-01-11T06:15:53;94129.91;;;-5.61;98.70
10466;BME280;5280;42.600;23.556;2024-01-11T06:18:20;94128.19;;;-5.62;98.90
10466;BME280;5280;42.600;23.556;2024-01-11T06:20:46;94116.22;;;-5.69;100.00
10466;BME280;5280;42.600;23.556;2024-01-11T06:23:13;94117.97;;;-5.74;100.00
10466;BME280;5280;42.600;23.556;2024-01-11T06:25:43;94082.00;;;-5.85;100.00
10466;BME280;5280;42.600;23.556;2024-01-11T06:28:11;94118.84;;;-5.75;100.00
10466;BME280;5280;42.600;23.556;2024-01-11T06:30:38;94083.84;;;-6.00;100.00
10466;BME280;5280;42.600;23.556;2024-01-11T06:33:05;94113.63;;;-5.68;100.00
10466;BME280;5280;42.600;23.556;2024-01-11T06:35:32;94083.78;;;-5.88;100.00
10466;BME280;5280;42.600;23.556;2024-01-11T06:37:59;94112.81;;;-5.71;100.00
10466;BME280;5280;42.600;23.556;2024-01-11T06:40:26;94116.19;;;-5.65;100.00
10466;BME280;5280;42.600;23.556;2024-01-11T06:42:54;94093.06;;;-5.72;100.00
10466;BME280;5280;42.600;23.556;2024-01-11T06:45:21;94104.19;;;-5.66;100.00
10466;BME280;5280;42.600;23.556;2024-01-11T06:47:47;94093.16;;;-5.86;100.00
10466;BME280;5280;42.600;23.556;2024-01-11T06:50:14;94105.06;;;-5.68;100.00
10466;BME280;5280;42.600;23.556;2024-01-11T06:52:41;94098.22;;;-5.69;100.00
10466;BME280;5280;42.600;23.556;2024-01-11T06:55:08;94104.22;;;-5.70;100.00
10466;BME280;5280;42.600;23.556;2024-01-11T06:57:36;94091.34;;;-5.70;100.00
10466;BME280;5280;42.600;23.556;2024-01-11T07:00:05;94094.75;;;-5.65;100.00
10466;BME280;5280;42.600;23.556;2024-01-11T07:02:33;94082.78;;;-5.72;100.00
10466;BME280;5280;42.600;23.556;2024-01-11T07:05:00;94097.28;;;-5.60;100.00
10466;BME280;5280;42.600;23.556;2024-01-11T07:07:27;94092.13;;;-5.60;100.00
10466;BME280;5280;42.600;23.556;2024-01-11T07:09:53;94095.53;;;-5.54;100.00
10466;BME280;5280;42.600;23.556;2024-01-11T07:12:21;94102.41;;;-5.53;100.00
10466;BME280;5280;42.600;23.556;2024-01-11T07:14:47;94071.59;;;-5.65;100.00
10466;BME280;5280;42.600;23.556;2024-01-11T07:17:16;94095.50;;;-5.49;100.00
10466;BME280;5280;42.600;23.556;2024-01-11T07:19:43;94099.75;;;-5.47;100.00
10466;BME280;5280;42.600;23.556;2024-01-11T07:22:10;94095.47;;;-5.45;100.00
10466;BME280;5280;42.600;23.556;2024-01-11T07:24:37;94098.03;;;-5.45;100.00
10466;BME280;5280;42.600;23.556;2024-01-11T07:27:04;94100.59;;;-5.42;100.00
10466;BME280;5280;42.600;23.556;2024-01-11T07:29:32;94098.00;;;-5.40;100.00
10466;BME280;5280;42.600;23.556;2024-01-11T07:31:59;94080.88;;;-5.46;100.00
10466;BME280;5280;42.600;23.556;2024-01-11T07:34:27;94055.28;;;-5.67;100.00
10466;BME280;5280;42.600;23.556;2024-01-11T07:36:54;94075.72;;;-5.44;100.00
10466;BME280;5280;42.600;23.556;2024-01-11T07:39:22;94055.22;;;-5.55;100.00
10466;BME280;5280;42.600;23.556;2024-01-11T07:41:49;94089.38;;;-5.36;100.00
10466;BME280;5280;42.600;23.556;2024-01-11T07:44:16;94084.22;;;-5.35;100.00
10466;BME280;5280;42.600;23.556;2024-01-11T07:46:44;94091.00;;;-5.28;100.00
10466;BME280;5280;42.600;23.556;2024-01-11T07:49:10;94053.41;;;-5.44;100.00
10466;BME280;5280;42.600;23.556;2024-01-11T07:51:39;94081.53;;;-5.21;100.00
10466;BME280;5280;42.600;23.556;2024-01-11T07:54:05;94088.41;;;-5.18;100.00
10466;BME280;5280;42.600;23.556;2024-01-11T07:56:32;94073.84;;;-5.26;100.00
10466;BME280;5280;42.600;23.556;2024-01-11T07:58:59;94087.50;;;-5.14;100.00
10466;BME280;5280;42.600;23.556;2024-01-11T08:01:26;94089.16;;;-5.10;100.00
10466;BME280;5280;42.600;23.556;2024-01-11T08:03:53;94018.22;;;-5.43;100.00
10466;BME280;5280;42.600;23.556;2024-01-11T08:06:20;94080.53;;;-5.06;100.00
10466;BME280;5280;42.600;23.556;2024-01-11T08:08:49;93996.84;;;-5.56;100.00
10466;BME280;5280;42.600;23.556;2024-01-11T08:11:17;94077.19;;;-5.14;100.00
10466;BME280;5280;42.600;23.556;2024-01-11T08:13:44;94078.78;;;-5.03;100.00
10466;BME280;5280;42.600;23.556;2024-01-11T08:16:15;94071.94;;;-5.05;100.00
10466;BME280;5280;42.600;23.556;2024-01-11T08:18:43;94072.75;;;-5.02;100.00
10466;BME280;5280;42.600;23.556;2024-01-11T08:21:14;94015.56;;;-5.36;100.00
10466;BME280;5280;42.600;23.556;2024-01-11T08:23:41;94071.00;;;-4.97;100.00
10466;BME280;5280;42.600;23.556;2024-01-11T08:26:15;94066.69;;;-4.95;100.00
10466;BME280;5280;42.600;23.556;2024-01-11T08:28:44;94036.78;;;-5.09;100.00
10466;BME280;5280;42.600;23.556;2024-01-11T08:31:11;94071.78;;;-4.90;100.00
10466;BME280;5280;42.600;23.556;2024-01-11T08:33:38;94038.34;;;-4.98;100.00
10466;BME280;5280;42.600;23.556;2024-01-11T08:36:06;94029.00;;;-5.03;100.00
10466;BME280;5280;42.600;23.556;2024-01-11T08:38:33;94039.13;;;-4.88;100.00
10466;BME280;5280;42.600;23.556;2024-01-11T08:41:01;94049.34;;;-4.79;100.00
10466;BME280;5280;42.600;23.556;2024-01-11T08:43:30;94061.28;;;-4.70;100.00
10466;BME280;5280;42.600;23.556;2024-01-11T08:45:56;94057.84;;;-4.71;100.00
10466;BME280;5280;42.600;23.556;2024-01-11T08:48:23;94050.16;;;-4.74;100.00
10466;BME280;5280;42.600;23.556;2024-01-11T08:50:50;94016.81;;;-4.92;100.00
10466;BME280;5280;42.600;23.556;2024-01-11T08:53:17;93992.06;;;-5.07;100.00
10466;BME280;5280;42.600;23.556;2024-01-11T08:55:44;94040.69;;;-4.73;100.00
10466;BME280;5280;42.600;23.556;2024-01-11T08:58:11;94045.81;;;-4.70;100.00
10466;BME280;5280;42.600;23.556;2024-01-11T09:00:39;94051.84;;;-4.73;100.00
10466;BME280;5280;42.600;23.556;2024-01-11T09:03:06;94038.88;;;-4.65;100.00
10466;BME280;5280;42.600;23.556;2024-01-11T09:05:33;94031.94;;;-4.60;100.00
10466;BME280;5280;42.600;23.556;2024-01-11T09:08:00;94019.97;;;-4.66;100.00
10466;BME280;5280;42.600;23.556;2024-01-11T09:10:27;94047.28;;;-4.50;100.00
10466;BME280;5280;42.600;23.556;2024-01-11T09:12:54;94030.06;;;-4.48;100.00
10466;BME280;5280;42.600;23.556;2024-01-11T09:15:21;94022.19;;;-4.37;100.00
10466;BME280;5280;42.600;23.556;2024-01-11T09:17:49;94033.34;;;-4.33;100.00
10466;BME280;5280;42.600;23.556;2024-01-11T09:20:16;93972.56;;;-4.56;100.00
10466;BME280;5280;42.600;23.556;2024-01-11T09:22:44;94019.38;;;-4.19;100.00
10466;BME280;5280;42.600;23.556;2024-01-11T09:25:12;94012.47;;;-4.18;100.00
10466;BME280;5280;42.600;23.556;2024-01-11T09:27:39;94014.25;;;-4.22;100.00
10466;BME280;5280;42.600;23.556;2024-01-11T09:30:07;93983.44;;;-4.32;100.00
10466;BME280;5280;42.600;23.556;2024-01-11T09:32:34;93998.69;;;-4.17;100.00
10466;BME280;5280;42.600;23.556;2024-01-11T09:35:03;93996.03;;;-4.10;100.00
10466;BME280;5280;42.600;23.556;2024-01-11T09:37:30;94001.00;;;-3.96;100.00
10466;BME280;5280;42.600;23.556;2024-01-11T09:39:57;93998.56;;;-4.07;100.00
10466;BME280;5280;42.600;23.556;2024-01-11T09:42:26;93984.66;;;-3.98;100.00
10466;BME280;5280;42.600;23.556;2024-01-11T09:44:54;93982.88;;;-3.93;100.00
10466;BME280;5280;42.600;23.556;2024-01-11T09:47:21;93974.97;;;-3.82;100.00
10466;BME280;5280;42.600;23.556;2024-01-11T09:49:49;93966.34;;;-3.81;100.00
10466;BME280;5280;42.600;23.556;2024-01-11T09:52:19;93949.97;;;-3.79;100.00
10466;BME280;5280;42.600;23.556;2024-01-11T09:54:47;93943.91;;;-3.78;100.00
10466;BME280;5280;42.600;23.556;2024-01-11T09:57:16;93907.22;;;-3.98;100.00
10466;BME280;5280;42.600;23.556;2024-01-11T09:59:49;93935.19;;;-3.69;100.00
10466;BME280;5280;42.600;23.556;2024-01-11T10:02:20;93921.53;;;-3.77;100.00
10466;BME280;5280;42.600;23.556;2024-01-11T10:04:48;93935.78;;;-3.55;100.00
10466;BME280;5280;42.600;23.556;2024-01-11T10:07:19;93933.16;;;-3.52;100.00
10466;BME280;5280;42.600;23.556;2024-01-11T10:09:48;93934.09;;;-3.58;100.00
10466;BME280;5280;42.600;23.556;2024-01-11T10:12:15;93906.78;;;-3.71;100.00
10466;BME280;5280;42.600;23.556;2024-01-11T10:14:42;93896.56;;;-3.77;100.00
10466;BME280;5280;42.600;23.556;2024-01-11T10:17:12;93925.88;;;-3.30;100.00
10466;BME280;5280;42.600;23.556;2024-01-11T10:19:39;93915.44;;;-3.24;100.00
10466;BME280;5280;42.600;23.556;2024-01-11T10:22:06;93914.53;;;-3.23;100.00
10466;BME280;5280;42.600;23.556;2024-01-11T10:24:34;93900.84;;;-3.28;100.00
10466;BME280;5280;42.600;23.556;2024-01-11T10:27:02;93917.84;;;-3.15;100.00
10466;BME280;5280;42.600;23.556;2024-01-11T10:29:30;93916.06;;;-3.13;100.00
10466;BME280;5280;42.600;23.556;2024-01-11T10:31:57;93890.38;;;-3.21;100.00
10466;BME280;5280;42.600;23.556;2024-01-11T10:34:24;93911.66;;;-3.08;100.00
10466;BME280;5280;42.600;23.556;2024-01-11T10:36:51;93891.94;;;-3.12;100.00
10466;BME280;5280;42.600;23.556;2024-01-11T10:39:23;93892.66;;;-3.04;100.00
10466;BME280;5280;42.600;23.556;2024-01-11T10:42:03;93876.44;;;-3.14;100.00
10466;BME280;5280;42.600;23.556;2024-01-11T10:44:33;93878.91;;;-3.08;100.00
10466;BME280;5280;42.600;23.556;2024-01-11T10:47:03;93876.84;;;-2.90;100.00
10466;BME280;5280;42.600;23.556;2024-01-11T10:49:33;93885.28;;;-2.82;100.00
10466;BME280;5280;42.600;23.556;2024-01-11T10:52:02;93847.56;;;-2.92;100.00
10466;BME280;5280;42.600;23.556;2024-01-11T10:54:31;93864.56;;;-2.79;100.00
10466;BME280;5280;42.600;23.556;2024-01-11T10:57:02;93842.94;;;-2.77;100.00
10466;BME280;5280;42.600;23.556;2024-01-11T10:59:31;93862.41;;;-2.61;100.00
10466;BME280;5280;42.600;23.556;2024-01-11T11:02:04;93830.88;;;-2.78;100.00
10466;BME280;5280;42.600;23.556;2024-01-11T11:04:32;93834.28;;;-2.74;100.00
10466;BME280;5280;42.600;23.556;2024-01-11T11:07:01;93851.13;;;-2.56;100.00
10466;BME280;5280;42.600;23.556;2024-01-11T11:09:30;93827.00;;;-2.58;100.00
10466;BME280;5280;42.600;23.556;2024-01-11T11:12:01;93826.09;;;-2.56;100.00
10466;BME280;5280;42.600;23.556;2024-01-11T11:14:29;93819.81;;;-2.44;100.00
10466;BME280;5280;42.600;23.556;2024-01-11T11:16:58;93733.66;;;-2.85;100.00
10466;BME280;5280;42.600;23.556;2024-01-11T11:19:25;93819.34;;;-2.26;100.00
10466;BME280;5280;42.600;23.556;2024-01-11T11:21:52;93816.66;;;-2.22;100.00
10466;BME280;5280;42.600;23.556;2024-01-11T11:24:19;93808.69;;;-2.14;100.00
10466;BME280;5280;42.600;23.556;2024-01-11T11:26:46;93797.50;;;-2.14;100.00
10466;BME280;5280;42.600;23.556;2024-01-11T11:29:15;93795.53;;;-2.05;100.00
10466;BME280;5280;42.600;23.556;2024-01-11T11:31:44;93782.59;;;-2.05;100.00
10466;BME280;5280;42.600;23.556;2024-01-11T11:34:13;93790.91;;;-1.94;100.00
10466;BME280;5280;42.600;23.556;2024-01-11T11:36:40;93784.81;;;-1.90;100.00
10466;BME280;5280;42.600;23.556;2024-01-11T11:39:10;93782.97;;;-1.86;100.00
10466;BME280;5280;42.600;23.556;2024-01-11T11:41:37;93770.16;;;-1.91;100.00
10466;BME280;5280;42.600;23.556;2024-01-11T11:44:05;93771.50;;;-1.78;100.00
10466;BME280;5280;42.600;23.556;2024-01-11T11:46:34;93683.69;;;-2.18;100.00
10466;BME280;5280;42.600;23.556;2024-01-11T11:49:01;93753.50;;;-1.82;100.00
10466;BME280;5280;42.600;23.556;2024-01-11T11:51:27;93744.50;;;-1.69;100.00
10466;BME280;5280;42.600;23.556;2024-01-11T11:53:54;93762.28;;;-1.55;100.00
10466;BME280;5280;42.600;23.556;2024-01-11T11:56:22;93763.81;;;-1.48;100.00
10466;BME280;5280;42.600;23.556;2024-01-11T11:58:49;93762.09;;;-1.49;100.00
10466;BME280;5280;42.600;23.556;2024-01-11T12:01:19;93760.22;;;-1.44;100.00
10466;BME280;5280;42.600;23.556;2024-01-11T12:03:47;93737.25;;;-1.56;100.00
10466;BME280;5280;42.600;23.556;2024-01-11T12:06:16;93698.09;;;-1.77;100.00
10466;BME280;5280;42.600;23.556;2024-01-11T12:08:45;93741.84;;;-1.35;100.00
10466;BME280;5280;42.600;23.556;2024-01-11T12:11:17;93715.13;;;-1.37;100.00
10466;BME280;5280;42.600;23.556;2024-01-11T12:13:45;93727.97;;;-1.34;100.00
10466;BME280;5280;42.600;23.556;2024-01-11T12:16:13;93733.81;;;-1.26;100.00
10466;BME280;5280;42.600;23.556;2024-01-11T12:18:40;93722.44;;;-1.22;100.00
10466;BME280;5280;42.600;23.556;2024-01-11T12:21:08;93715.94;;;-1.35;100.00
10466;BME280;5280;42.600;23.556;2024-01-11T12:23:37;93722.00;;;-1.36;100.00
10466;BME280;5280;42.600;23.556;2024-01-11T12:26:06;93705.72;;;-1.40;100.00
10466;BME280;5280;42.600;23.556;2024-01-11T12:28:38;93707.97;;;-1.29;100.00
10466;BME280;5280;42.600;23.556;2024-01-11T12:31:05;93700.72;;;-1.18;100.00
10466;BME280;5280;42.600;23.556;2024-01-11T12:33:32;93709.50;;;-1.22;100.00
10466;BME280;5280;42.600;23.556;2024-01-11T12:36:00;93698.16;;;-1.19;100.00
10466;BME280;5280;42.600;23.556;2024-01-11T12:38:29;93688.06;;;-1.28;100.00
10466;BME280;5280;42.600;23.556;2024-01-11T12:40:56;93705.13;;;-1.20;100.00
10466;BME280;5280;42.600;23.556;2024-01-11T12:43:23;93673.19;;;-1.22;100.00
10466;BME280;5280;42.600;23.556;2024-01-11T12:45:50;93679.09;;;-1.17;100.00
10466;BME280;5280;42.600;23.556;2024-01-11T12:48:19;93691.56;;;-1.00;100.00
10466;BME280;5280;42.600;23.556;2024-01-11T12:50:46;93695.56;;;-0.90;100.00
10466;BME280;5280;42.600;23.556;2024-01-11T12:53:14;93681.81;;;-0.94;100.00